KECP

Northwest Florida Beaches International Airport

Panama City, Florida, USA
KECP 202330Z 2100/2124 16008KT P6SM VCSH FEW025 BKN035 FM210300 17004KT P6SM SCT050 FM211500 19005KT P6SM VCTS SCT025 BKN035CB
Issued Valid From Valid To
Aug-20 @ 23:30 UTC
(18 hours ago)
Aug-21 @ 00:00 UTC
(18 hours ago)
Aug-22 @ 00:00 UTC
(in 6 hours)
Expired Click to View Aug-21 @ 00:00 to Aug-21 @ 03:00
KECP 202330Z 2100/2124 16008KT P6SM VCSH FEW025 BKN035
Wind Visibility Clouds
160° at 8 knots Greater than 6 miles
  • Few at 2,500' AGL
  • Broken at 3,500' AGL
Expired Click to View Aug-21 @ 03:00 to Aug-21 @ 15:00
FM210300 17004KT P6SM SCT050
Wind Visibility Clouds
170° at 4 knots Greater than 6 miles
  • Scattered at 5,000' AGL
From Aug-21 @ 15:00 to Aug-22 @ 00:00
FM211500 19005KT P6SM VCTS SCT025 BKN035CB
Wind Visibility Clouds Conditions
190° at 5 knots Greater than 6 miles
  • Scattered at 2,500' AGL
  • Broken at 3,500' AGL
  • Area Thunderstorm
KECP 202330Z 2100/2124 16008KT P6SM VCSH FEW025 BKN035 FM210300 17004KT P6SM SCT050 FM211500 19005KT P6SM VCTS SCT025 BKN035CB
Issued Aug-20 @ 23:30 UTC
(18 hours ago)
Valid From Aug-21 @ 00:00 UTC
(18 hours ago)
Valid To Aug-22 @ 00:00 UTC
(in 6 hours)
Aug-21 @ 00:00 - Aug-21 @ 03:00
Wind Visibility
160° at 8 knots Greater than 6 miles
Clouds
  • Few at 2,500' AGL
  • Broken at 3,500' AGL
Aug-21 @ 03:00 - Aug-21 @ 15:00
Wind Visibility
170° at 4 knots Greater than 6 miles
Clouds
  • Scattered at 5,000' AGL
From Aug-21 @ 15:00 - Aug-22 @ 00:00
Wind Visibility
190° at 5 knots Greater than 6 miles
Clouds
  • Scattered at 2,500' AGL
  • Broken at 3,500' AGL
Conditions
  • Area Thunderstorm